Time;durP1;ratioP1;P1;durP2;ratioP2;P2;SDS_P1;SDS_P2;PMS_P1;PMS_P2;Temp;Humidity;BMP_temperature;BMP_pressure;BME280_temperature;BME280_humidity;BME280_pressure;Samples;Min_cycle;Max_cycle;Signal;HPM_P1;HPM_P2
2022/02/16 00:00:47;;;;;;;;;0.75;0.00;;;;;11.04;100.00;100623.25;4975156;28;45490;-80
2022/02/16 00:03:12;;;;;;;;;2.00;0.00;;;;;11.06;100.00;100621.59;4993630;27;45208;-80
2022/02/16 00:05:38;;;;;;;;;2.00;1.25;;;;;11.08;100.00;100621.66;4993840;28;45269;-80
2022/02/16 00:08:05;;;;;;;;;1.00;1.00;;;;;11.13;100.00;100609.75;4993567;28;45192;-81
2022/02/16 00:10:31;;;;;;;;;0.00;0.00;;;;;11.14;100.00;100615.00;4993840;28;45351;-80
2022/02/16 00:12:56;;;;;;;;;0.25;0.00;;;;;11.15;100.00;100589.97;4993931;27;45355;-80
2022/02/16 00:15:23;;;;;;;;;1.00;1.00;;;;;11.17;100.00;100592.63;4993635;27;45480;-80
2022/02/16 00:17:51;;;;;;;;;0.25;0.00;;;;;11.17;100.00;100590.91;4976785;28;45444;-81
2022/02/16 00:20:18;;;;;;;;;1.00;1.00;;;;;11.19;100.00;100589.28;4974984;28;47507;-79
2022/02/16 00:22:44;;;;;;;;;0.50;0.50;;;;;11.19;100.00;100591.84;4993183;28;45790;-78
2022/02/16 00:25:10;;;;;;;;;0.00;0.00;;;;;11.22;100.00;100598.84;4992583;27;45383;-80
2022/02/16 00:27:36;;;;;;;;;0.25;0.25;;;;;11.19;100.00;100597.03;4992150;28;45527;-78
2022/02/16 00:30:04;;;;;;;;;0.00;0.00;;;;;11.21;100.00;100607.47;4991797;28;46526;-78
2022/02/16 00:32:32;;;;;;;;;1.50;0.25;;;;;11.21;100.00;100590.22;4993203;27;45868;-78
2022/02/16 00:34:58;;;;;;;;;1.00;1.00;;;;;11.20;100.00;100575.50;4991504;28;45459;-77
2022/02/16 00:37:23;;;;;;;;;0.00;0.00;;;;;11.20;100.00;100569.41;4994250;28;45588;-78
2022/02/16 00:39:49;;;;;;;;;0.00;0.00;;;;;11.20;100.00;100569.41;4993008;28;46084;-78
2022/02/16 00:42:14;;;;;;;;;0.00;0.00;;;;;11.18;100.00;100553.81;4993202;28;45344;-77
2022/02/16 00:44:40;;;;;;;;;0.00;0.00;;;;;11.19;100.00;100555.59;4993101;28;45219;-78
2022/02/16 00:47:06;;;;;;;;;0.00;0.00;;;;;11.17;100.00;100554.63;4992737;27;45553;-78
2022/02/16 00:49:31;;;;;;;;;0.00;0.00;;;;;11.19;100.00;100555.59;4992952;28;45358;-78
2022/02/16 00:51:57;;;;;;;;;0.00;0.00;;;;;11.19;100.00;100554.69;4992833;28;45847;-77
2022/02/16 00:54:23;;;;;;;;;0.00;0.00;;;;;11.19;100.00;100547.81;4992421;28;45445;-78
2022/02/16 00:56:48;;;;;;;;;0.00;0.00;;;;;11.19;100.00;100539.13;4992483;28;45702;-77
2022/02/16 00:59:14;;;;;;;;;0.00;0.00;;;;;11.17;100.00;100528.72;4992580;28;45664;-77
2022/02/16 01:01:39;;;;;;;;;0.00;0.00;;;;;11.21;100.00;100519.34;4992649;28;45340;-77
2022/02/16 01:04:05;;;;;;;;;0.00;0.00;;;;;11.19;100.00;100528.78;4993352;28;45271;-79
2022/02/16 01:06:30;;;;;;;;;0.00;0.00;;;;;11.19;100.00;100514.13;4993120;28;45388;-78
2022/02/16 01:08:56;;;;;;;;;0.00;0.00;;;;;11.19;100.00;100513.22;4992492;28;45475;-76
2022/02/16 01:11:22;;;;;;;;;1.00;1.00;;;;;11.20;100.00;100520.16;4991781;28;45224;-78
2022/02/16 01:13:48;;;;;;;;;1.00;0.00;;;;;11.17;100.00;100500.22;4975234;28;45584;-78
2022/02/16 01:16:14;;;;;;;;;0.00;0.00;;;;;11.18;100.00;100499.41;4992660;28;45438;-78
2022/02/16 01:18:39;;;;;;;;;2.00;0.00;;;;;11.18;100.00;100499.41;4992808;28;46242;-78
2022/02/16 01:21:05;;;;;;;;;0.00;0.00;;;;;11.17;100.00;100489.84;4991964;27;45548;-77
2022/02/16 01:23:30;;;;;;;;;1.00;0.25;;;;;11.17;100.00;100486.41;4992898;28;45522;-77
2022/02/16 01:25:56;;;;;;;;;0.00;0.00;;;;;11.20;100.00;100483.91;4991932;27;45638;-78
2022/02/16 01:28:22;;;;;;;;;0.00;0.00;;;;;11.19;100.00;100495.97;4992496;28;45487;-79
2022/02/16 01:30:48;;;;;;;;;0.00;0.00;;;;;11.19;100.00;100489.91;4992491;27;45412;-77
2022/02/16 01:33:14;;;;;;;;;0.00;0.00;;;;;11.19;100.00;100488.22;4993306;28;45537;-77
2022/02/16 01:35:40;;;;;;;;;0.00;0.00;;;;;11.21;100.00;100473.59;4995961;28;45322;-77
2022/02/16 01:38:06;;;;;;;;;0.00;0.00;;;;;11.22;100.00;100483.16;4995497;28;45713;-78
2022/02/16 01:40:31;;;;;;;;;0.00;0.00;;;;;11.21;100.00;100472.72;4995938;27;45369;-78
2022/02/16 01:42:57;;;;;;;;;0.00;0.00;;;;;11.19;100.00;100479.53;4978233;28;45244;-78
2022/02/16 01:45:27;;;;;;;;;0.00;0.00;;;;;11.21;100.00;100462.34;4996406;28;45223;-78
2022/02/16 01:47:54;;;;;;;;;0.00;0.00;;;;;11.18;100.00;100476.06;4977821;28;47911;-77
2022/02/16 01:50:20;;;;;;;;;0.00;0.00;;;;;11.16;100.00;100469.94;4995028;27;45578;-78
2022/02/16 01:52:47;;;;;;;;;0.00;0.00;;;;;11.15;100.00;100457.81;4994766;28;45511;-78
2022/02/16 01:55:13;;;;;;;;;0.00;0.00;;;;;11.18;100.00;100449.25;4995294;27;45311;-77
2022/02/16 01:57:39;;;;;;;;;0.00;0.00;;;;;11.15;100.00;100444.84;4995565;28;45852;-77
2022/02/16 02:00:07;;;;;;;;;0.00;0.00;;;;;11.18;100.00;100450.16;4995522;28;45364;-79
2022/02/16 02:02:33;;;;;;;;;0.00;0.00;;;;;11.17;100.00;100438.03;4994675;27;45468;-80
2022/02/16 02:04:58;;;;;;;;;0.00;0.00;;;;;11.18;100.00;100431.13;4995170;28;45664;-77
2022/02/16 02:07:24;;;;;;;;;0.00;0.00;;;;;11.22;100.00;100435.59;4995130;28;45560;-79
2022/02/16 02:09:50;;;;;;;;;0.00;0.00;;;;;11.20;100.00;100417.41;4995357;28;45421;-80
2022/02/16 02:12:15;;;;;;;;;0.00;0.00;;;;;11.24;100.00;100424.47;4995400;27;45331;-80
2022/02/16 02:14:42;;;;;;;;;0.00;0.00;;;;;11.25;100.00;100415.84;4993782;28;45490;-80
2022/02/16 02:17:07;;;;;;;;;0.00;0.00;;;;;11.27;100.00;100421.97;4994022;28;45411;-77
2022/02/16 02:19:33;;;;;;;;;0.00;0.00;;;;;11.27;100.00;100405.56;4994689;28;45182;-79
2022/02/16 02:22:00;;;;;;;;;0.00;0.00;;;;;11.29;100.00;100407.38;4994055;28;45269;-81
2022/02/16 02:24:26;;;;;;;;;0.00;0.00;;;;;11.29;100.00;100396.09;4994973;28;45542;-81
2022/02/16 02:26:52;;;;;;;;;0.00;0.00;;;;;11.32;100.00;100404.00;4995021;27;45377;-80
2022/02/16 02:29:17;;;;;;;;;0.00;0.00;;;;;11.33;100.00;100403.19;4994477;28;45500;-80
2022/02/16 02:31:43;;;;;;;;;0.00;0.00;;;;;11.33;100.00;100391.94;4995130;28;45280;-81
2022/02/16 02:34:09;;;;;;;;;0.00;0.00;;;;;11.32;100.00;100378.09;4995038;27;45609;-80
2022/02/16 02:36:34;;;;;;;;;0.00;0.00;;;;;11.35;100.00;100382.47;4995020;28;45606;-80
2022/02/16 02:39:00;;;;;;;;;0.00;0.00;;;;;11.35;100.00;100382.47;4993236;28;45558;-80
2022/02/16 02:41:26;;;;;;;;;0.00;0.00;;;;;11.35;100.00;100359.16;4993719;27;45420;-78
2022/02/16 02:43:51;;;;;;;;;0.00;0.00;;;;;11.37;100.00;100367.88;4992784;28;45382;-78
2022/02/16 02:46:18;;;;;;;;;0.00;0.00;;;;;11.39;100.00;100369.69;4993747;28;45994;-78
2022/02/16 02:48:44;;;;;;;;;0.00;0.00;;;;;11.38;100.00;100367.94;4994438;28;45678;-77
2022/02/16 02:51:10;;;;;;;;;0.00;0.00;;;;;11.40;100.00;100362.81;4993618;28;45363;-77
2022/02/16 02:53:38;;;;;;;;;0.00;0.00;;;;;11.42;100.00;100355.97;4994756;28;45562;-77
2022/02/16 02:56:05;;;;;;;;;0.25;0.00;;;;;11.43;100.00;100340.47;4992864;28;46168;-78
2022/02/16 02:58:30;;;;;;;;;0.00;0.00;;;;;11.44;100.00;100341.34;4994898;27;45403;-78
2022/02/16 03:00:58;;;;;;;;;0.00;0.00;;;;;11.49;100.00;100341.50;4993769;28;45557;-78
2022/02/16 03:03:24;;;;;;;;;0.00;0.00;;;;;11.49;100.00;100339.78;4993014;28;45563;-77
2022/02/16 03:05:50;;;;;;;;;0.00;0.00;;;;;11.51;100.00;100334.63;4977146;28;45519;-77
2022/02/16 03:08:16;;;;;;;;;0.00;0.00;;;;;11.49;100.00;100325.94;4993379;28;45202;-77
2022/02/16 03:10:41;;;;;;;;;0.00;0.00;;;;;11.48;100.00;100312.09;4977038;28;45457;-78
2022/02/16 03:13:18;;;;;;;;;0.00;0.00;;;;;11.50;100.00;100312.16;4993626;28;45501;-77
2022/02/16 03:15:49;;;;;;;;;0.00;0.00;;;;;11.50;100.00;100299.19;4976946;28;47170;-78
2022/02/16 03:18:15;;;;;;;;;0.00;0.00;;;;;11.52;100.00;100303.59;4994061;28;45350;-78
2022/02/16 03:20:41;;;;;;;;;0.00;0.00;;;;;11.52;100.00;100293.22;4993940;28;45679;-78
2022/02/16 03:23:07;;;;;;;;;0.00;0.00;;;;;11.53;100.00;100295.00;4994191;28;45544;-78
2022/02/16 03:25:33;;;;;;;;;0.00;0.00;;;;;11.56;100.00;100296.78;4993024;28;45465;-78
2022/02/16 03:27:58;;;;;;;;;0.00;0.00;;;;;11.53;100.00;100286.31;4993133;28;45457;-78
2022/02/16 03:30:24;;;;;;;;;0.00;0.00;;;;;11.55;100.00;100289.84;4994507;28;45363;-77
2022/02/16 03:32:50;;;;;;;;;0.00;0.00;;;;;11.53;100.00;100286.31;4994314;27;45568;-78
2022/02/16 03:35:15;;;;;;;;;0.25;0.00;;;;;11.53;100.00;100276.84;4993335;28;45398;-78
2022/02/16 03:37:41;;;;;;;;;0.00;0.00;;;;;11.52;100.00;100272.50;4994481;27;45422;-78
2022/02/16 03:40:07;;;;;;;;;0.00;0.00;;;;;11.53;100.00;100279.44;4992945;28;45399;-78
2022/02/16 03:42:33;;;;;;;;;0.00;0.00;;;;;11.56;100.00;100291.59;4994462;28;45441;-78
2022/02/16 03:44:59;;;;;;;;;0.00;0.00;;;;;11.54;100.00;100275.13;4993573;27;45263;-80
2022/02/16 03:47:24;;;;;;;;;0.00;0.00;;;;;11.58;100.00;100277.00;4994019;28;45261;-78
2022/02/16 03:49:50;;;;;;;;;0.00;0.00;;;;;11.58;100.00;100275.25;4993967;28;45291;-78
2022/02/16 03:52:16;;;;;;;;;0.00;0.00;;;;;11.58;100.00;100270.06;4994500;28;45494;-79
2022/02/16 03:54:42;;;;;;;;;0.00;0.00;;;;;11.60;100.00;100268.41;4993515;27;46097;-79
2022/02/16 03:57:07;;;;;;;;;0.00;0.00;;;;;11.56;100.00;100252.72;4974913;28;45630;-78
2022/02/16 03:59:36;;;;;;;;;0.00;0.00;;;;;11.56;100.00;100253.59;4994619;27;45466;-78
2022/02/16 04:02:02;;;;;;;;;0.00;0.00;;;;;11.58;100.00;100253.66;4993864;28;45612;-78
2022/02/16 04:04:29;;;;;;;;;0.00;0.00;;;;;11.58;100.00;100264.03;4993322;27;45350;-77
2022/02/16 04:06:54;;;;;;;;;0.00;0.00;;;;;11.60;100.00;100257.19;4975489;28;45652;-78
2022/02/16 04:09:20;;;;;;;;;1.00;0.00;;;;;11.63;100.00;100246.03;4994093;28;45316;-78
2022/02/16 04:11:46;;;;;;;;;0.00;0.00;;;;;11.64;100.00;100256.44;4994469;28;45279;-78
2022/02/16 04:14:11;;;;;;;;;0.00;0.00;;;;;11.66;100.00;100233.16;4992392;28;45943;-77
2022/02/16 04:16:37;;;;;;;;;0.00;0.00;;;;;11.68;100.00;100242.75;4991868;28;45818;-77
2022/02/16 04:19:02;;;;;;;;;0.00;0.00;;;;;11.69;100.00;100238.41;4993277;28;45712;-78
2022/02/16 04:21:28;;;;;;;;;0.00;0.00;;;;;11.71;100.00;100242.84;4994013;27;45554;-79
2022/02/16 04:23:56;;;;;;;;;0.00;0.00;;;;;11.72;100.00;100248.91;4992980;28;46472;-79
2022/02/16 04:26:21;;;;;;;;;0.00;0.00;;;;;11.75;100.00;100246.41;4991879;28;45736;-78
2022/02/16 04:28:49;;;;;;;;;0.00;0.00;;;;;11.77;100.00;100252.50;4993428;28;45466;-78
2022/02/16 04:31:15;;;;;;;;;0.00;0.00;;;;;11.79;100.00;100234.41;4992705;27;45562;-78
2022/02/16 04:33:41;;;;;;;;;0.00;0.00;;;;;11.81;100.00;100233.63;4992939;28;45477;-78
2022/02/16 04:36:07;;;;;;;;;0.00;0.00;;;;;11.85;100.00;100235.47;4995427;27;45591;-79
2022/02/16 04:38:32;;;;;;;;;1.00;0.00;;;;;11.86;100.00;100231.16;4993847;28;45329;-79
2022/02/16 04:40:58;;;;;;;;;0.00;0.00;;;;;11.88;100.00;100224.31;4993008;28;45606;-79
2022/02/16 04:43:23;;;;;;;;;0.00;0.00;;;;;11.90;100.00;100220.91;4974892;28;45437;-80
2022/02/16 04:45:54;;;;;;;;;0.00;0.00;;;;;11.91;100.00;100222.69;4992658;28;45438;-81
2022/02/16 04:48:21;;;;;;;;;0.00;0.00;;;;;11.89;100.00;100218.28;4972330;28;45266;-80
2022/02/16 04:50:47;;;;;;;;;1.00;0.00;;;;;11.88;100.00;100219.13;4979309;28;45432;-81
2022/02/16 04:53:15;;;;;;;;;0.00;0.00;;;;;11.91;100.00;100225.28;4992299;27;46375;-81
2022/02/16 04:55:41;;;;;;;;;0.00;0.00;;;;;11.95;100.00;100227.97;4993406;28;45707;-80
2022/02/16 04:58:07;;;;;;;;;0.00;0.00;;;;;11.95;100.00;100227.97;4994499;28;45458;-81
2022/02/16 05:00:33;;;;;;;;;0.00;0.00;;;;;11.98;100.00;100210.81;4993584;28;45423;-79
2022/02/16 05:02:59;;;;;;;;;0.00;0.00;;;;;11.96;100.00;100217.63;4993165;28;45401;-80
2022/02/16 05:05:27;;;;;;;;;0.00;0.00;;;;;11.96;100.00;100233.19;4994437;27;45251;-80
2022/02/16 05:07:53;;;;;;;;;0.00;0.00;;;;;11.98;100.00;100228.97;4995016;27;45428;-77
2022/02/16 05:10:18;;;;;;;;;0.00;0.00;;;;;12.00;100.00;100224.72;4996806;27;45339;-79
2022/02/16 05:12:47;;;;;;;;;0.00;0.00;;;;;12.02;100.00;100230.81;4996452;28;46291;-79
2022/02/16 05:15:12;;;;;;;;;0.00;0.00;;;;;12.01;100.00;100244.63;4996166;28;45204;-77
2022/02/16 05:17:38;;;;;;;;;0.00;0.00;;;;;12.04;100.00;100233.44;4995633;28;45240;-78
2022/02/16 05:20:04;;;;;;;;;0.00;0.00;;;;;12.04;100.00;100231.72;4995220;27;45478;-77
2022/02/16 05:22:30;;;;;;;;;0.00;0.00;;;;;12.06;100.00;100219.69;4995254;28;45340;-77
2022/02/16 05:24:56;;;;;;;;;1.00;0.00;;;;;12.10;100.00;100237.94;4977211;28;45427;-77
2022/02/16 05:27:21;;;;;;;;;0.00;0.00;;;;;12.08;100.00;100219.75;4995182;28;45552;-78
2022/02/16 05:29:47;;;;;;;;;0.00;0.00;;;;;12.12;100.00;100220.72;4994870;28;45576;-77
2022/02/16 05:32:13;;;;;;;;;0.00;0.00;;;;;12.12;100.00;100223.31;4993679;28;45504;-78
2022/02/16 05:34:39;;;;;;;;;0.00;0.00;;;;;12.13;100.00;100201.72;4995379;28;45512;-77
2022/02/16 05:37:05;;;;;;;;;0.00;0.00;;;;;12.16;100.00;100223.44;4995180;28;46401;-78
2022/02/16 05:39:31;;;;;;;;;0.00;0.00;;;;;12.15;100.00;100200.91;4995904;28;45426;-78
2022/02/16 05:41:57;;;;;;;;;1.00;0.00;;;;;12.17;100.00;100217.41;4996010;28;45813;-78
2022/02/16 05:44:22;;;;;;;;;0.00;0.00;;;;;12.17;100.00;100214.81;4994647;28;45447;-79
2022/02/16 05:46:48;;;;;;;;;0.00;0.00;;;;;12.22;100.00;100212.34;4995479;28;45220;-79
2022/02/16 05:49:14;;;;;;;;;0.00;0.00;;;;;12.25;100.00;100208.94;4994529;27;45325;-79
2022/02/16 05:51:40;;;;;;;;;0.00;0.00;;;;;12.27;100.00;100200.38;4994727;28;45946;-77
2022/02/16 05:54:06;;;;;;;;;0.00;0.00;;;;;12.28;100.00;100216.84;4995426;28;45236;-80
2022/02/16 05:56:32;;;;;;;;;0.00;0.00;;;;;12.31;100.00;100225.59;4994828;28;45316;-79
2022/02/16 05:58:58;;;;;;;;;0.00;0.00;;;;;12.36;100.00;100221.38;4994650;28;45556;-78
2022/02/16 06:01:24;;;;;;;;;0.00;0.00;;;;;12.40;100.00;100227.56;4994693;28;45756;-79
2022/02/16 06:03:50;;;;;;;;;0.00;0.00;;;;;12.43;100.00;100217.25;4995494;28;45268;-78
2022/02/16 06:06:18;;;;;;;;;0.00;0.00;;;;;12.46;100.00;100219.94;4994620;27;45390;-77
2022/02/16 06:08:44;;;;;;;;;0.00;0.00;;;;;12.50;100.00;100219.19;4995424;28;45677;-78
2022/02/16 06:11:10;;;;;;;;;0.00;0.00;;;;;12.54;100.00;100221.00;4994426;28;45259;-78
2022/02/16 06:13:36;;;;;;;;;0.00;0.00;;;;;12.59;100.00;100220.28;4995036;28;45262;-78
2022/02/16 06:16:02;;;;;;;;;0.00;0.00;;;;;12.61;100.00;100232.44;4994455;28;45529;-78
2022/02/16 06:18:28;;;;;;;;;0.00;0.00;;;;;12.61;100.00;100227.25;4994717;28;45612;-78
2022/02/16 06:20:55;;;;;;;;;0.00;0.00;;;;;12.64;100.00;100222.16;4994593;28;45497;-80
2022/02/16 06:23:21;;;;;;;;;0.00;0.00;;;;;12.68;100.00;100233.50;4994786;28;45543;-80
2022/02/16 06:25:46;;;;;;;;;0.00;0.00;;;;;12.73;100.00;100225.84;4994975;28;45260;-78
2022/02/16 06:28:12;;;;;;;;;0.00;0.00;;;;;12.76;100.00;100239.78;4993927;28;45511;-78
2022/02/16 06:30:38;;;;;;;;;0.00;0.00;;;;;12.77;100.00;100218.16;4994382;27;45407;-77
2022/02/16 06:33:03;;;;;;;;;0.00;0.00;;;;;12.81;100.00;100221.72;4994115;28;45201;-77
2022/02/16 06:35:29;;;;;;;;;0.00;0.00;;;;;12.82;100.00;100224.38;4995192;28;45365;-77
2022/02/16 06:37:54;;;;;;;;;0.00;0.00;;;;;12.84;100.00;100220.09;4995263;28;45653;-77
2022/02/16 06:40:20;;;;;;;;;0.00;0.00;;;;;12.87;100.00;100231.38;4993279;28;45485;-78
2022/02/16 06:42:46;;;;;;;;;0.00;0.00;;;;;12.85;100.00;100239.16;4994340;28;45273;-80
2022/02/16 06:45:14;;;;;;;;;0.00;0.00;;;;;12.85;100.00;100239.16;4978464;28;45442;-78
2022/02/16 06:47:40;;;;;;;;;0.25;0.00;;;;;12.90;100.00;100242.75;4977149;28;45456;-79
2022/02/16 06:50:06;;;;;;;;;0.00;0.00;;;;;12.91;100.00;100248.81;4991018;28;45659;-81
2022/02/16 06:52:32;;;;;;;;;0.00;0.00;;;;;12.92;100.00;100263.56;4993915;28;45310;-79
2022/02/16 06:54:58;;;;;;;;;0.00;0.00;;;;;12.92;100.00;100258.38;4994393;28;45272;-78
2022/02/16 06:57:23;;;;;;;;;0.00;0.00;;;;;12.92;100.00;100264.44;4994667;28;45455;-80
2022/02/16 06:59:49;;;;;;;;;0.00;0.00;;;;;12.95;100.00;100274.06;4993648;28;45986;-81
2022/02/16 07:02:15;;;;;;;;;0.00;0.00;;;;;12.95;100.00;100277.53;5002350;28;45161;-80
2022/02/16 07:04:40;;;;;;;;;0.00;0.00;;;;;12.96;100.00;100263.69;4993988;28;45348;-81
2022/02/16 07:07:06;;;;;;;;;0.00;0.00;;;;;12.97;100.00;100252.47;4994114;28;45525;-77
2022/02/16 07:09:31;;;;;;;;;0.00;0.00;;;;;13.00;100.00;100264.66;4993191;28;45552;-80
2022/02/16 07:11:57;;;;;;;;;0.00;0.00;;;;;12.99;100.00;100281.06;4994252;28;45475;-78
2022/02/16 07:14:23;;;;;;;;;0.00;0.00;;;;;13.00;100.00;100270.75;4993926;28;45450;-80
2022/02/16 07:16:49;;;;;;;;;0.00;0.00;;;;;13.02;100.00;100286.34;4995035;28;45391;-79
2022/02/16 07:19:24;;;;;;;;;0.00;0.00;;;;;13.03;100.00;100274.22;4994460;27;45459;-81
2022/02/16 07:21:50;;;;;;;;;0.00;0.00;;;;;13.05;100.00;100277.75;4995736;28;45525;-83
2022/02/16 07:24:15;;;;;;;;;0.00;0.00;;;;;13.06;100.00;100277.81;4996366;27;45483;-81
2022/02/16 07:26:41;;;;;;;;;0.00;0.00;;;;;13.08;100.00;100272.66;4994027;28;45611;-83
2022/02/16 07:29:07;;;;;;;;;0.00;0.00;;;;;13.10;100.00;100263.19;4994640;28;45983;-86
2022/02/16 07:31:32;;;;;;;;;0.00;0.00;;;;;13.13;100.00;100266.72;4974347;28;45583;-89
2022/02/16 07:33:58;;;;;;;;;0.00;0.00;;;;;13.13;100.00;100264.13;4977354;28;45283;-83
2022/02/16 07:36:24;;;;;;;;;0.00;0.00;;;;;13.16;100.00;100284.13;4988269;28;45626;-86
2022/02/16 07:38:49;;;;;;;;;0.00;0.00;;;;;13.16;100.00;100285.00;4974693;28;45550;-86
2022/02/16 07:41:15;;;;;;;;;0.00;0.00;;;;;13.23;100.00;100261.75;4993060;28;45507;-84
2022/02/16 07:43:41;;;;;;;;;0.00;0.00;;;;;13.26;100.00;100274.84;4994737;27;45734;-83
2022/02/16 07:46:08;;;;;;;;;0.00;0.00;;;;;13.24;100.00;100284.31;4995491;28;45364;-89
2022/02/16 07:48:34;;;;;;;;;0.00;0.00;;;;;13.26;100.00;100299.09;4992859;28;46871;-84
2022/02/16 07:51:00;;;;;;;;;0.00;0.00;;;;;13.29;100.00;100290.50;4993456;28;45352;-85
2022/02/16 07:53:26;;;;;;;;;0.00;0.00;;;;;13.29;100.00;100282.69;4994319;27;45434;-83
2022/02/16 07:55:52;;;;;;;;;0.00;0.00;;;;;13.34;100.00;100285.41;4994493;28;45598;-82
2022/02/16 07:58:17;;;;;;;;;0.00;0.00;;;;;13.34;100.00;100286.31;5005141;27;45251;-84
2022/02/16 08:00:43;;;;;;;;;0.00;0.00;;;;;13.39;100.00;100294.22;4994343;28;45651;-82
2022/02/16 08:03:09;;;;;;;;;0.00;0.00;;;;;13.39;100.00;100284.72;4995921;27;45244;-83
2022/02/16 08:05:39;;;;;;;;;0.00;0.00;;;;;13.41;100.00;100292.56;4994984;27;45616;-83
2022/02/16 08:08:04;;;;;;;;;0.00;0.00;;;;;13.44;100.00;100279.66;4991867;27;46309;-83
2022/02/16 08:10:30;;;;;;;;;0.00;0.00;;;;;13.43;100.00;100285.69;4993609;28;45346;-83
2022/02/16 08:12:56;;;;;;;;;0.00;0.00;;;;;13.48;100.00;100284.06;4994863;28;45376;-83
2022/02/16 08:15:26;;;;;;;;;0.75;0.00;;;;;13.48;100.00;100291.00;4992867;28;45597;-83
2022/02/16 08:17:52;;;;;;;;;0.00;0.00;;;;;13.48;100.00;100293.59;4996505;27;45439;-86
2022/02/16 08:20:19;;;;;;;;;0.00;0.00;;;;;13.53;100.00;100298.09;4994052;28;45823;-82
2022/02/16 08:22:45;;;;;;;;;0.00;0.00;;;;;13.52;100.00;100305.81;4996007;27;45485;-85
2022/02/16 08:25:12;;;;;;;;;0.00;0.00;;;;;13.49;100.00;100304.03;4992346;27;45737;-85
2022/02/16 08:27:38;;;;;;;;;0.00;0.00;;;;;13.56;100.00;100313.75;4993944;28;46107;-81
2022/02/16 08:30:05;;;;;;;;;0.00;0.00;;;;;13.56;100.00;100308.53;5002720;27;46178;-85
2022/02/16 08:32:31;;;;;;;;;0.00;0.00;;;;;13.52;100.00;100303.22;4978529;28;45931;-86
2022/02/16 08:34:57;;;;;;;;;1.00;1.00;;;;;13.52;100.00;100291.13;4997191;28;45691;-84
2022/02/16 08:37:22;;;;;;;;;0.00;0.00;;;;;13.54;100.00;100304.16;4993924;27;45780;-85
2022/02/16 08:39:48;;;;;;;;;0.00;0.00;;;;;13.54;100.00;100307.66;4992729;27;45526;-90
2022/02/16 08:42:14;;;;;;;;;0.00;0.00;;;;;13.61;100.00;100300.84;4993040;28;45478;-84
2022/02/16 08:44:39;;;;;;;;;0.00;0.00;;;;;13.64;100.00;100298.31;4994460;28;45481;-83
2022/02/16 08:47:06;;;;;;;;;0.00;0.00;;;;;13.70;100.00;100297.59;4975827;28;47672;-84
2022/02/16 08:49:32;;;;;;;;;0.00;0.00;;;;;13.67;100.00;100308.81;4993812;28;45639;-84
2022/02/16 08:51:58;;;;;;;;;1.25;1.00;;;;;13.72;100.00;100308.91;4975702;28;45311;-83
2022/02/16 08:54:24;;;;;;;;;0.00;0.00;;;;;13.75;100.00;100299.47;4994969;28;45240;-84
2022/02/16 08:56:50;;;;;;;;;0.00;0.00;;;;;13.78;100.00;100299.53;4977021;28;46349;-84
2022/02/16 08:59:17;;;;;;;;;1.00;1.00;;;;;13.82;100.00;100315.22;4993569;28;45791;-84
2022/02/16 09:01:43;;;;;;;;;0.00;0.00;;;;;13.86;100.00;100307.53;4993539;28;45445;-82
2022/02/16 09:04:09;;;;;;;;;0.00;0.00;;;;;13.87;100.00;100305.78;4975500;28;45448;-84
2022/02/16 09:06:35;;;;;;;;;0.00;0.00;;;;;13.90;100.00;100317.16;4992896;28;45974;-84
2022/02/16 09:09:02;;;;;;;;;0.00;0.00;;;;;13.91;100.00;100308.50;4993085;28;45609;-84
2022/02/16 09:11:29;;;;;;;;;0.00;0.00;;;;;13.90;100.00;100316.28;4993222;28;45299;-85
2022/02/16 09:13:56;;;;;;;;;0.00;0.00;;;;;13.93;100.00;100327.63;4994880;28;45528;-86
2022/02/16 09:16:22;;;;;;;;;0.00;0.00;;;;;13.94;100.00;100310.28;4995508;28;46817;-87
2022/02/16 09:18:48;;;;;;;;;0.00;0.00;;;;;13.99;100.00;100319.09;4977916;28;45933;-85
2022/02/16 09:21:16;;;;;;;;;0.00;0.00;;;;;13.98;100.00;100338.16;4994640;28;45603;-84
2022/02/16 09:23:41;;;;;;;;;0.00;0.00;;;;;14.00;100.00;100359.00;4997103;28;45449;-87
2022/02/16 09:26:08;;;;;;;;;0.00;0.00;;;;;14.00;100.00;100335.56;4977129;28;47780;-79
2022/02/16 09:28:35;;;;;;;;;0.00;0.00;;;;;14.01;100.00;100338.22;4992484;28;46127;-81
2022/02/16 09:31:01;;;;;;;;;0.00;0.00;;;;;14.00;100.00;100370.31;4992531;28;45343;-83
2022/02/16 09:33:28;;;;;;;;;0.00;0.00;;;;;14.02;100.00;100368.63;4992846;28;45474;-81
2022/02/16 09:35:55;;;;;;;;;0.75;0.00;;;;;14.04;100.00;100368.66;4992078;27;45445;-81
2022/02/16 09:38:21;;;;;;;;;0.00;0.00;;;;;14.03;100.00;100372.09;4990191;28;45529;-76
2022/02/16 09:40:49;;;;;;;;;0.25;0.00;;;;;14.05;100.00;100371.28;4991778;28;45394;-83
2022/02/16 09:43:22;;;;;;;;;0.25;0.00;;;;;14.09;100.00;100356.63;4990809;28;45662;-81
2022/02/16 09:45:53;;;;;;;;;0.75;0.00;;;;;14.13;100.00;100357.59;4991111;28;46186;-82
2022/02/16 09:48:21;;;;;;;;;0.00;0.00;;;;;14.14;100.00;100357.59;4990756;28;45667;-81
2022/02/16 09:50:46;;;;;;;;;0.50;0.00;;;;;14.16;100.00;100352.41;4998569;28;45562;-81
2022/02/16 09:53:12;;;;;;;;;1.00;0.00;;;;;14.15;100.00;100346.34;4991843;28;45301;-80
2022/02/16 09:55:37;;;;;;;;;1.00;0.00;;;;;14.11;100.00;100349.72;4994889;28;46076;-81
2022/02/16 09:58:03;;;;;;;;;1.00;0.00;;;;;14.18;100.00;100335.13;4994377;28;45240;-81
2022/02/16 10:00:29;;;;;;;;;0.00;0.00;;;;;14.21;100.00;100346.47;4995059;28;45446;-81
2022/02/16 10:02:54;;;;;;;;;0.75;0.00;;;;;14.25;100.00;100360.47;4994399;27;45391;-81
2022/02/16 10:05:20;;;;;;;;;0.00;0.00;;;;;14.29;100.00;100353.59;4994666;28;45901;-81
2022/02/16 10:07:49;;;;;;;;;0.00;0.00;;;;;14.31;100.00;100344.97;4996031;28;45340;-83
2022/02/16 10:10:19;;;;;;;;;0.00;0.00;;;;;14.39;100.00;100352.94;4995401;28;45315;-81
2022/02/16 10:12:50;;;;;;;;;0.00;0.00;;;;;14.43;100.00;100351.28;4995372;28;45502;-82
2022/02/16 10:15:19;;;;;;;;;0.00;0.00;;;;;14.46;100.00;100357.44;4994830;28;46170;-81
2022/02/16 10:17:45;;;;;;;;;0.00;0.00;;;;;14.48;100.00;100349.66;4996060;28;45312;-82
2022/02/16 10:20:14;;;;;;;;;0.00;0.00;;;;;14.52;100.00;100333.25;4994861;28;45408;-82
2022/02/16 10:22:45;;;;;;;;;0.00;0.00;;;;;14.57;100.00;100344.66;4995898;27;45494;-82
2022/02/16 10:25:14;;;;;;;;;0.00;0.00;;;;;14.65;100.00;100336.97;4995348;28;45343;-83
2022/02/16 10:28:14;;;;;;;;;0.00;0.00;;;;;14.76;100.00;100355.47;4995459;28;45477;-83
2022/02/16 10:30:58;;;;;;;;;0.00;0.00;;;;;14.77;100.00;100376.34;4994982;28;45391;-83
2022/02/16 10:33:33;;;;;;;;;0.50;0.50;;;;;14.77;100.00;100363.31;4976409;28;45406;-81
2022/02/16 10:36:03;;;;;;;;;0.25;0.25;;;;;14.75;100.00;100367.63;4994258;27;45279;-81
2022/02/16 10:38:30;;;;;;;;;0.00;0.00;;;;;14.79;100.00;100363.38;4994966;28;45710;-81
2022/02/16 10:41:14;;;;;;;;;1.00;0.00;;;;;14.77;100.00;100344.22;4995013;28;45447;-82
2022/02/16 10:43:40;;;;;;;;;0.00;0.00;;;;;14.74;100.00;100347.63;4995522;28;45445;-81
2022/02/16 10:46:25;;;;;;;;;0.00;0.00;;;;;14.72;100.00;100372.78;4994276;27;45920;-82
2022/02/16 10:49:17;;;;;;;;;0.00;0.00;;;;;14.71;100.00;100376.22;4994962;28;45457;-83
2022/02/16 10:51:46;;;;;;;;;0.00;0.00;;;;;14.66;100.00;100370.91;4993804;27;45845;-86
2022/02/16 10:54:16;;;;;;;;;0.00;0.00;;;;;14.66;100.00;100372.59;4994221;28;45612;-87
2022/02/16 10:56:43;;;;;;;;;0.00;0.00;;;;;14.64;100.00;100375.19;4995122;28;45676;-84
2022/02/16 10:59:10;;;;;;;;;0.00;0.00;;;;;14.66;100.00;100370.00;4994759;27;45345;-82
2022/02/16 11:01:37;;;;;;;;;1.00;1.00;;;;;14.67;100.00;100377.91;5001598;28;45350;-86
2022/02/16 11:04:05;;;;;;;;;0.00;0.00;;;;;14.73;100.00;100391.88;4997671;27;45340;-89
2022/02/16 11:06:32;;;;;;;;;0.00;0.00;;;;;14.72;100.00;100383.22;4994538;28;45390;-93
2022/02/16 11:08:59;;;;;;;;;0.00;0.00;;;;;14.70;100.00;100377.06;4984628;28;45346;-91
2022/02/16 11:11:29;;;;;;;;;0.75;0.00;;;;;14.77;100.00;100409.38;5011519;28;45441;-87
2022/02/16 11:14:00;;;;;;;;;0.75;0.75;;;;;14.79;100.00;100415.50;5010729;27;45173;-87